sensor_id;sensor_type;location;lat;lon;timestamp;P1;durP1;ratioP1;P2;durP2;ratioP2
46899;SDS011;32647;49.382;7.078;2022-08-04T00:01:35;3.50;;;3.10;;
46899;SDS011;32647;49.382;7.078;2022-08-04T00:07:30;4.72;;;3.00;;
46899;SDS011;32647;49.382;7.078;2022-08-04T00:10:24;6.25;;;3.10;;
46899;SDS011;32647;49.382;7.078;2022-08-04T00:13:12;6.72;;;3.58;;
46899;SDS011;32647;49.382;7.078;2022-08-04T00:16:03;3.47;;;3.17;;
46899;SDS011;32647;49.382;7.078;2022-08-04T00:19:02;3.75;;;3.10;;
46899;SDS011;32647;49.382;7.078;2022-08-04T00:21:50;3.40;;;3.08;;
46899;SDS011;32647;49.382;7.078;2022-08-04T00:24:40;5.43;;;3.50;;
46899;SDS011;32647;49.382;7.078;2022-08-04T00:27:27;5.13;;;3.28;;
46899;SDS011;32647;49.382;7.078;2022-08-04T00:30:17;4.97;;;3.47;;
46899;SDS011;32647;49.382;7.078;2022-08-04T00:33:03;3.50;;;2.90;;
46899;SDS011;32647;49.382;7.078;2022-08-04T00:35:50;5.60;;;3.42;;
46899;SDS011;32647;49.382;7.078;2022-08-04T00:38:36;3.67;;;2.95;;
46899;SDS011;32647;49.382;7.078;2022-08-04T00:54:37;3.63;;;3.10;;
46899;SDS011;32647;49.382;7.078;2022-08-04T01:01:04;4.80;;;3.42;;
46899;SDS011;32647;49.382;7.078;2022-08-04T01:04:02;5.72;;;3.50;;
46899;SDS011;32647;49.382;7.078;2022-08-04T01:18:54;5.60;;;3.47;;
46899;SDS011;32647;49.382;7.078;2022-08-04T01:30:17;4.18;;;3.25;;
46899;SDS011;32647;49.382;7.078;2022-08-04T01:33:04;6.78;;;3.03;;
46899;SDS011;32647;49.382;7.078;2022-08-04T01:35:55;6.50;;;3.20;;
46899;SDS011;32647;49.382;7.078;2022-08-04T01:38:45;3.85;;;3.30;;
46899;SDS011;32647;49.382;7.078;2022-08-04T01:41:32;3.63;;;3.22;;
46899;SDS011;32647;49.382;7.078;2022-08-04T01:44:18;3.60;;;3.30;;
46899;SDS011;32647;49.382;7.078;2022-08-04T01:47:08;3.75;;;3.35;;
46899;SDS011;32647;49.382;7.078;2022-08-04T01:49:54;4.30;;;3.22;;
46899;SDS011;32647;49.382;7.078;2022-08-04T01:52:51;4.45;;;2.90;;
46899;SDS011;32647;49.382;7.078;2022-08-04T01:55:38;3.80;;;3.45;;
46899;SDS011;32647;49.382;7.078;2022-08-04T01:58:25;5.25;;;3.53;;
46899;SDS011;32647;49.382;7.078;2022-08-04T02:01:14;3.83;;;3.53;;
46899;SDS011;32647;49.382;7.078;2022-08-04T02:04:00;3.50;;;2.90;;
46899;SDS011;32647;49.382;7.078;2022-08-04T02:10:06;3.67;;;3.22;;
46899;SDS011;32647;49.382;7.078;2022-08-04T02:13:01;3.70;;;3.05;;
46899;SDS011;32647;49.382;7.078;2022-08-04T02:19:00;5.95;;;3.50;;
46899;SDS011;32647;49.382;7.078;2022-08-04T02:22:16;4.65;;;3.05;;
46899;SDS011;32647;49.382;7.078;2022-08-04T02:25:06;3.80;;;2.78;;
46899;SDS011;32647;49.382;7.078;2022-08-04T02:28:01;4.88;;;3.35;;
46899;SDS011;32647;49.382;7.078;2022-08-04T02:34:13;3.70;;;3.40;;
46899;SDS011;32647;49.382;7.078;2022-08-04T02:37:13;3.85;;;3.47;;
46899;SDS011;32647;49.382;7.078;2022-08-04T02:40:03;3.75;;;3.40;;
46899;SDS011;32647;49.382;7.078;2022-08-04T02:42:51;4.10;;;3.47;;
46899;SDS011;32647;49.382;7.078;2022-08-04T02:45:41;4.15;;;3.75;;
46899;SDS011;32647;49.382;7.078;2022-08-04T02:48:30;3.85;;;3.45;;
46899;SDS011;32647;49.382;7.078;2022-08-04T02:51:21;4.13;;;3.70;;
46899;SDS011;32647;49.382;7.078;2022-08-04T02:54:09;4.40;;;3.63;;
46899;SDS011;32647;49.382;7.078;2022-08-04T02:56:55;7.55;;;3.70;;
46899;SDS011;32647;49.382;7.078;2022-08-04T03:00:03;4.00;;;3.60;;
46899;SDS011;32647;49.382;7.078;2022-08-04T03:12:18;4.20;;;3.60;;
46899;SDS011;32647;49.382;7.078;2022-08-04T03:18:36;4.07;;;3.70;;
46899;SDS011;32647;49.382;7.078;2022-08-04T03:25:22;4.20;;;3.80;;
46899;SDS011;32647;49.382;7.078;2022-08-04T03:31:46;7.50;;;3.60;;
46899;SDS011;32647;49.382;7.078;2022-08-04T03:53:33;4.30;;;3.58;;
46899;SDS011;32647;49.382;7.078;2022-08-04T03:56:38;4.32;;;3.50;;
46899;SDS011;32647;49.382;7.078;2022-08-04T04:06:18;4.85;;;3.90;;
46899;SDS011;32647;49.382;7.078;2022-08-04T04:09:22;5.28;;;3.60;;
46899;SDS011;32647;49.382;7.078;2022-08-04T04:12:46;6.18;;;3.97;;
46899;SDS011;32647;49.382;7.078;2022-08-04T04:25:01;4.13;;;3.72;;
46899;SDS011;32647;49.382;7.078;2022-08-04T04:33:40;4.10;;;3.70;;
46899;SDS011;32647;49.382;7.078;2022-08-04T04:36:36;5.85;;;4.07;;
46899;SDS011;32647;49.382;7.078;2022-08-04T04:46:10;3.78;;;3.47;;
46899;SDS011;32647;49.382;7.078;2022-08-04T04:55:42;4.38;;;3.97;;
46899;SDS011;32647;49.382;7.078;2022-08-04T04:58:34;4.88;;;3.72;;
46899;SDS011;32647;49.382;7.078;2022-08-04T05:08:11;7.60;;;4.43;;
46899;SDS011;32647;49.382;7.078;2022-08-04T05:14:36;5.13;;;3.83;;
46899;SDS011;32647;49.382;7.078;2022-08-04T05:17:29;5.00;;;3.63;;
46899;SDS011;32647;49.382;7.078;2022-08-04T05:20:43;5.97;;;4.28;;
46899;SDS011;32647;49.382;7.078;2022-08-04T05:23:32;5.32;;;4.30;;
46899;SDS011;32647;49.382;7.078;2022-08-04T05:26:25;4.35;;;3.95;;
46899;SDS011;32647;49.382;7.078;2022-08-04T05:29:17;6.18;;;4.60;;
46899;SDS011;32647;49.382;7.078;2022-08-04T05:32:14;6.15;;;4.40;;
46899;SDS011;32647;49.382;7.078;2022-08-04T05:35:07;5.57;;;4.18;;
46899;SDS011;32647;49.382;7.078;2022-08-04T05:37:55;7.28;;;4.32;;
46899;SDS011;32647;49.382;7.078;2022-08-04T05:40:43;5.28;;;4.35;;
46899;SDS011;32647;49.382;7.078;2022-08-04T05:43:30;6.43;;;4.30;;
46899;SDS011;32647;49.382;7.078;2022-08-04T05:46:17;4.93;;;4.43;;
46899;SDS011;32647;49.382;7.078;2022-08-04T05:49:04;4.50;;;3.92;;
46899;SDS011;32647;49.382;7.078;2022-08-04T05:51:54;5.22;;;4.72;;
46899;SDS011;32647;49.382;7.078;2022-08-04T05:54:42;4.72;;;4.30;;
46899;SDS011;32647;49.382;7.078;2022-08-04T05:57:29;5.20;;;4.28;;
46899;SDS011;32647;49.382;7.078;2022-08-04T06:00:17;4.20;;;3.80;;
46899;SDS011;32647;49.382;7.078;2022-08-04T06:03:03;7.15;;;4.00;;
46899;SDS011;32647;49.382;7.078;2022-08-04T06:05:50;6.50;;;5.90;;
46899;SDS011;32647;49.382;7.078;2022-08-04T06:45:46;4.75;;;3.30;;
46899;SDS011;32647;49.382;7.078;2022-08-04T06:51:51;4.53;;;3.72;;
46899;SDS011;32647;49.382;7.078;2022-08-04T06:58:46;9.15;;;3.83;;
46899;SDS011;32647;49.382;7.078;2022-08-04T07:09:07;6.18;;;3.30;;
46899;SDS011;32647;49.382;7.078;2022-08-04T07:12:00;5.15;;;3.25;;
46899;SDS011;32647;49.382;7.078;2022-08-04T07:18:59;4.78;;;3.33;;
46899;SDS011;32647;49.382;7.078;2022-08-04T07:25:30;3.50;;;3.20;;
46899;SDS011;32647;49.382;7.078;2022-08-04T07:28:26;5.53;;;3.08;;
46899;SDS011;32647;49.382;7.078;2022-08-04T07:34:21;3.83;;;2.97;;
46899;SDS011;32647;49.382;7.078;2022-08-04T07:37:36;3.25;;;2.95;;
46899;SDS011;32647;49.382;7.078;2022-08-04T07:40:25;6.65;;;2.92;;
46899;SDS011;32647;49.382;7.078;2022-08-04T07:46:56;7.30;;;3.72;;
46899;SDS011;32647;49.382;7.078;2022-08-04T07:50:15;6.18;;;3.13;;
46899;SDS011;32647;49.382;7.078;2022-08-04T07:53:04;7.95;;;3.40;;
46899;SDS011;32647;49.382;7.078;2022-08-04T07:56:01;7.25;;;3.00;;
46899;SDS011;32647;49.382;7.078;2022-08-04T08:02:53;6.60;;;2.73;;
46899;SDS011;32647;49.382;7.078;2022-08-04T08:05:51;4.47;;;2.78;;
46899;SDS011;32647;49.382;7.078;2022-08-04T08:11:24;4.18;;;2.88;;
46899;SDS011;32647;49.382;7.078;2022-08-04T08:14:20;5.13;;;2.83;;
46899;SDS011;32647;49.382;7.078;2022-08-04T08:17:52;4.72;;;2.95;;
46899;SDS011;32647;49.382;7.078;2022-08-04T08:20:50;11.00;;;3.03;;
46899;SDS011;32647;49.382;7.078;2022-08-04T08:23:57;5.20;;;3.40;;
46899;SDS011;32647;49.382;7.078;2022-08-04T08:30:10;8.00;;;3.53;;
46899;SDS011;32647;49.382;7.078;2022-08-04T08:33:10;9.38;;;3.80;;
46899;SDS011;32647;49.382;7.078;2022-08-04T09:08:59;5.47;;;2.80;;
46899;SDS011;32647;49.382;7.078;2022-08-04T09:25:36;4.47;;;2.50;;
46899;SDS011;32647;49.382;7.078;2022-08-04T09:31:13;9.45;;;2.60;;
46899;SDS011;32647;49.382;7.078;2022-08-04T09:40:20;2.63;;;2.10;;
46899;SDS011;32647;49.382;7.078;2022-08-04T09:53:02;4.07;;;1.85;;
46899;SDS011;32647;49.382;7.078;2022-08-04T09:56:31;10.05;;;1.95;;
46899;SDS011;32647;49.382;7.078;2022-08-04T09:59:34;4.65;;;2.00;;
46899;SDS011;32647;49.382;7.078;2022-08-04T10:02:36;3.00;;;1.85;;
46899;SDS011;32647;49.382;7.078;2022-08-04T10:08:41;3.92;;;1.85;;
46899;SDS011;32647;49.382;7.078;2022-08-04T10:30:36;4.45;;;2.10;;
46899;SDS011;32647;49.382;7.078;2022-08-04T10:33:29;3.25;;;1.45;;
46899;SDS011;32647;49.382;7.078;2022-08-04T10:36:21;4.00;;;1.85;;
46899;SDS011;32647;49.382;7.078;2022-08-04T10:39:13;4.65;;;1.73;;
46899;SDS011;32647;49.382;7.078;2022-08-04T10:42:26;2.90;;;2.17;;
46899;SDS011;32647;49.382;7.078;2022-08-04T10:45:31;8.95;;;2.53;;
46899;SDS011;32647;49.382;7.078;2022-08-04T10:48:35;6.60;;;1.80;;
46899;SDS011;32647;49.382;7.078;2022-08-04T10:51:29;4.65;;;1.75;;
46899;SDS011;32647;49.382;7.078;2022-08-04T10:57:20;4.25;;;1.65;;
46899;SDS011;32647;49.382;7.078;2022-08-04T11:00:24;5.78;;;1.88;;
46899;SDS011;32647;49.382;7.078;2022-08-04T11:03:18;2.55;;;1.63;;
46899;SDS011;32647;49.382;7.078;2022-08-04T11:06:11;3.00;;;1.83;;
46899;SDS011;32647;49.382;7.078;2022-08-04T11:08:58;5.30;;;1.70;;
46899;SDS011;32647;49.382;7.078;2022-08-04T11:11:52;2.92;;;1.90;;
46899;SDS011;32647;49.382;7.078;2022-08-04T11:17:58;6.90;;;1.70;;
46899;SDS011;32647;49.382;7.078;2022-08-04T11:23:47;3.47;;;1.70;;
46899;SDS011;32647;49.382;7.078;2022-08-04T11:30:00;3.83;;;1.80;;
46899;SDS011;32647;49.382;7.078;2022-08-04T11:36:21;3.28;;;1.98;;
46899;SDS011;32647;49.382;7.078;2022-08-04T11:39:49;4.28;;;1.55;;
46899;SDS011;32647;49.382;7.078;2022-08-04T11:42:38;4.13;;;1.63;;
46899;SDS011;32647;49.382;7.078;2022-08-04T11:45:35;3.28;;;1.67;;
46899;SDS011;32647;49.382;7.078;2022-08-04T11:48:31;4.38;;;1.65;;
46899;SDS011;32647;49.382;7.078;2022-08-04T11:51:25;3.63;;;1.52;;
46899;SDS011;32647;49.382;7.078;2022-08-04T11:54:19;4.22;;;1.80;;
46899;SDS011;32647;49.382;7.078;2022-08-04T11:57:06;3.67;;;1.60;;
46899;SDS011;32647;49.382;7.078;2022-08-04T11:59:54;3.53;;;1.42;;
46899;SDS011;32647;49.382;7.078;2022-08-04T12:06:09;5.50;;;2.13;;
46899;SDS011;32647;49.382;7.078;2022-08-04T12:09:07;3.88;;;1.52;;
46899;SDS011;32647;49.382;7.078;2022-08-04T12:17:51;2.38;;;1.83;;
46899;SDS011;32647;49.382;7.078;2022-08-04T12:21:04;4.32;;;1.70;;
46899;SDS011;32647;49.382;7.078;2022-08-04T12:23:57;4.35;;;1.50;;
46899;SDS011;32647;49.382;7.078;2022-08-04T12:26:51;5.22;;;2.08;;
46899;SDS011;32647;49.382;7.078;2022-08-04T12:29:41;9.95;;;2.13;;
46899;SDS011;32647;49.382;7.078;2022-08-04T12:32:31;2.00;;;1.80;;
46899;SDS011;32647;49.382;7.078;2022-08-04T12:35:30;5.55;;;1.98;;
46899;SDS011;32647;49.382;7.078;2022-08-04T12:38:22;4.85;;;1.90;;
46899;SDS011;32647;49.382;7.078;2022-08-04T12:41:11;7.25;;;2.05;;
46899;SDS011;32647;49.382;7.078;2022-08-04T12:44:08;4.18;;;1.60;;
46899;SDS011;32647;49.382;7.078;2022-08-04T12:46:57;8.13;;;1.92;;
46899;SDS011;32647;49.382;7.078;2022-08-04T12:49:45;4.10;;;1.70;;
46899;SDS011;32647;49.382;7.078;2022-08-04T12:52:55;2.63;;;1.52;;
46899;SDS011;32647;49.382;7.078;2022-08-04T12:55:46;5.80;;;1.80;;
46899;SDS011;32647;49.382;7.078;2022-08-04T12:58:41;3.85;;;1.55;;
46899;SDS011;32647;49.382;7.078;2022-08-04T13:01:29;4.78;;;1.70;;
46899;SDS011;32647;49.382;7.078;2022-08-04T13:04:18;4.38;;;1.40;;
46899;SDS011;32647;49.382;7.078;2022-08-04T13:07:08;3.67;;;1.88;;
46899;SDS011;32647;49.382;7.078;2022-08-04T13:09:58;6.20;;;1.83;;
46899;SDS011;32647;49.382;7.078;2022-08-04T13:12:52;3.03;;;1.70;;
46899;SDS011;32647;49.382;7.078;2022-08-04T13:15:41;2.28;;;2.00;;
46899;SDS011;32647;49.382;7.078;2022-08-04T13:18:29;4.20;;;1.98;;
46899;SDS011;32647;49.382;7.078;2022-08-04T13:21:21;2.65;;;1.60;;
46899;SDS011;32647;49.382;7.078;2022-08-04T13:27:04;3.83;;;2.17;;
46899;SDS011;32647;49.382;7.078;2022-08-04T13:29:56;4.82;;;1.60;;
46899;SDS011;32647;49.382;7.078;2022-08-04T13:32:43;3.47;;;1.40;;
46899;SDS011;32647;49.382;7.078;2022-08-04T13:35:31;6.35;;;1.70;;
46899;SDS011;32647;49.382;7.078;2022-08-04T13:38:18;8.27;;;1.60;;
46899;SDS011;32647;49.382;7.078;2022-08-04T13:41:05;4.45;;;1.70;;
46899;SDS011;32647;49.382;7.078;2022-08-04T13:43:54;2.70;;;1.80;;
46899;SDS011;32647;49.382;7.078;2022-08-04T13:46:46;5.30;;;1.65;;
46899;SDS011;32647;49.382;7.078;2022-08-04T13:49:37;5.90;;;1.83;;
46899;SDS011;32647;49.382;7.078;2022-08-04T13:52:23;5.35;;;1.92;;
46899;SDS011;32647;49.382;7.078;2022-08-04T13:58:22;6.25;;;2.50;;
46899;SDS011;32647;49.382;7.078;2022-08-04T14:01:14;3.10;;;1.70;;
46899;SDS011;32647;49.382;7.078;2022-08-04T14:04:05;4.32;;;1.60;;
46899;SDS011;32647;49.382;7.078;2022-08-04T14:06:58;3.85;;;1.80;;
46899;SDS011;32647;49.382;7.078;2022-08-04T14:09:54;6.85;;;2.28;;
46899;SDS011;32647;49.382;7.078;2022-08-04T14:12:44;10.25;;;1.80;;
46899;SDS011;32647;49.382;7.078;2022-08-04T14:15:34;2.78;;;1.80;;
46899;SDS011;32647;49.382;7.078;2022-08-04T14:18:29;3.25;;;1.52;;
46899;SDS011;32647;49.382;7.078;2022-08-04T14:21:18;5.35;;;1.88;;
46899;SDS011;32647;49.382;7.078;2022-08-04T14:24:04;2.92;;;1.85;;
46899;SDS011;32647;49.382;7.078;2022-08-04T14:26:51;4.20;;;1.70;;
46899;SDS011;32647;49.382;7.078;2022-08-04T14:29:42;3.38;;;1.55;;
46899;SDS011;32647;49.382;7.078;2022-08-04T14:32:28;2.47;;;1.50;;
46899;SDS011;32647;49.382;7.078;2022-08-04T14:35:14;5.07;;;1.70;;
46899;SDS011;32647;49.382;7.078;2022-08-04T14:38:01;4.35;;;2.00;;
46899;SDS011;32647;49.382;7.078;2022-08-04T14:40:50;4.85;;;1.73;;
46899;SDS011;32647;49.382;7.078;2022-08-04T14:46:31;6.85;;;1.65;;
46899;SDS011;32647;49.382;7.078;2022-08-04T14:49:17;3.92;;;1.95;;
46899;SDS011;32647;49.382;7.078;2022-08-04T14:52:03;4.63;;;1.77;;
46899;SDS011;32647;49.382;7.078;2022-08-04T14:54:49;3.88;;;1.58;;
46899;SDS011;32647;49.382;7.078;2022-08-04T14:57:35;5.30;;;1.60;;
46899;SDS011;32647;49.382;7.078;2022-08-04T15:00:26;3.72;;;1.60;;
46899;SDS011;32647;49.382;7.078;2022-08-04T15:03:14;3.05;;;1.55;;
46899;SDS011;32647;49.382;7.078;2022-08-04T15:06:02;4.72;;;1.55;;
46899;SDS011;32647;49.382;7.078;2022-08-04T15:08:51;6.78;;;1.65;;
46899;SDS011;32647;49.382;7.078;2022-08-04T15:11:39;4.25;;;1.95;;
46899;SDS011;32647;49.382;7.078;2022-08-04T15:14:25;5.05;;;1.80;;
46899;SDS011;32647;49.382;7.078;2022-08-04T15:17:11;8.43;;;2.03;;
46899;SDS011;32647;49.382;7.078;2022-08-04T15:19:58;4.55;;;2.10;;
46899;SDS011;32647;49.382;7.078;2022-08-04T15:22:44;4.28;;;1.88;;
46899;SDS011;32647;49.382;7.078;2022-08-04T15:25:34;3.05;;;1.70;;
46899;SDS011;32647;49.382;7.078;2022-08-04T15:28:26;8.30;;;1.80;;
46899;SDS011;32647;49.382;7.078;2022-08-04T15:31:13;13.70;;;2.85;;
46899;SDS011;32647;49.382;7.078;2022-08-04T15:34:01;3.95;;;1.98;;
46899;SDS011;32647;49.382;7.078;2022-08-04T15:39:43;3.85;;;2.17;;
46899;SDS011;32647;49.382;7.078;2022-08-04T15:42:47;7.28;;;1.95;;
46899;SDS011;32647;49.382;7.078;2022-08-04T15:45:54;5.85;;;2.10;;
46899;SDS011;32647;49.382;7.078;2022-08-04T15:48:49;5.10;;;1.83;;
46899;SDS011;32647;49.382;7.078;2022-08-04T15:51:36;6.15;;;1.70;;
46899;SDS011;32647;49.382;7.078;2022-08-04T15:54:22;3.20;;;1.92;;
46899;SDS011;32647;49.382;7.078;2022-08-04T15:57:08;3.83;;;1.73;;
46899;SDS011;32647;49.382;7.078;2022-08-04T16:02:52;3.40;;;1.80;;
46899;SDS011;32647;49.382;7.078;2022-08-04T16:05:40;12.68;;;1.83;;
46899;SDS011;32647;49.382;7.078;2022-08-04T16:08:26;2.13;;;1.67;;
46899;SDS011;32647;49.382;7.078;2022-08-04T16:14:08;4.05;;;1.67;;
46899;SDS011;32647;49.382;7.078;2022-08-04T16:16:54;5.93;;;1.77;;
46899;SDS011;32647;49.382;7.078;2022-08-04T16:19:45;3.97;;;1.83;;
46899;SDS011;32647;49.382;7.078;2022-08-04T16:22:52;4.10;;;1.67;;
46899;SDS011;32647;49.382;7.078;2022-08-04T16:25:45;4.78;;;2.08;;
46899;SDS011;32647;49.382;7.078;2022-08-04T16:28:39;5.88;;;1.70;;
46899;SDS011;32647;49.382;7.078;2022-08-04T16:31:26;6.03;;;2.63;;
46899;SDS011;32647;49.382;7.078;2022-08-04T16:34:12;3.25;;;2.17;;
46899;SDS011;32647;49.382;7.078;2022-08-04T16:37:07;2.75;;;1.60;;
46899;SDS011;32647;49.382;7.078;2022-08-04T16:43:22;4.57;;;3.95;;
46899;SDS011;32647;49.382;7.078;2022-08-04T16:46:12;2.58;;;2.10;;
46899;SDS011;32647;49.382;7.078;2022-08-04T16:49:28;3.75;;;1.65;;
46899;SDS011;32647;49.382;7.078;2022-08-04T16:52:15;8.85;;;2.05;;
46899;SDS011;32647;49.382;7.078;2022-08-04T16:55:02;6.90;;;1.70;;
46899;SDS011;32647;49.382;7.078;2022-08-04T16:57:48;6.78;;;2.22;;
46899;SDS011;32647;49.382;7.078;2022-08-04T17:00:36;5.50;;;2.10;;
46899;SDS011;32647;49.382;7.078;2022-08-04T17:03:22;5.15;;;2.70;;
46899;SDS011;32647;49.382;7.078;2022-08-04T17:06:10;5.45;;;1.90;;
46899;SDS011;32647;49.382;7.078;2022-08-04T17:09:03;3.67;;;1.65;;
46899;SDS011;32647;49.382;7.078;2022-08-04T17:11:50;3.67;;;1.83;;
46899;SDS011;32647;49.382;7.078;2022-08-04T17:14:37;17.00;;;1.92;;
46899;SDS011;32647;49.382;7.078;2022-08-04T17:17:23;3.72;;;1.80;;
46899;SDS011;32647;49.382;7.078;2022-08-04T17:20:09;3.25;;;1.50;;
46899;SDS011;32647;49.382;7.078;2022-08-04T17:22:56;3.15;;;1.63;;
46899;SDS011;32647;49.382;7.078;2022-08-04T17:26:13;2.22;;;1.77;;
46899;SDS011;32647;49.382;7.078;2022-08-04T17:29:01;3.45;;;1.60;;
46899;SDS011;32647;49.382;7.078;2022-08-04T17:31:48;3.28;;;1.75;;
46899;SDS011;32647;49.382;7.078;2022-08-04T17:34:35;4.88;;;1.77;;
46899;SDS011;32647;49.382;7.078;2022-08-04T17:37:21;6.53;;;1.92;;
46899;SDS011;32647;49.382;7.078;2022-08-04T17:40:14;3.30;;;1.80;;
46899;SDS011;32647;49.382;7.078;2022-08-04T17:43:04;4.82;;;1.70;;
46899;SDS011;32647;49.382;7.078;2022-08-04T17:51:56;4.73;;;2.00;;
46899;SDS011;32647;49.382;7.078;2022-08-04T17:54:45;2.55;;;2.00;;
46899;SDS011;32647;49.382;7.078;2022-08-04T17:57:42;3.88;;;1.65;;
46899;SDS011;32647;49.382;7.078;2022-08-04T18:00:33;2.60;;;2.03;;
46899;SDS011;32647;49.382;7.078;2022-08-04T18:03:23;6.05;;;2.00;;
46899;SDS011;32647;49.382;7.078;2022-08-04T18:06:10;6.93;;;1.90;;
46899;SDS011;32647;49.382;7.078;2022-08-04T18:08:57;4.32;;;1.98;;
46899;SDS011;32647;49.382;7.078;2022-08-04T18:11:49;3.83;;;1.75;;
46899;SDS011;32647;49.382;7.078;2022-08-04T18:14:41;4.15;;;1.90;;
46899;SDS011;32647;49.382;7.078;2022-08-04T18:17:37;3.10;;;2.03;;
46899;SDS011;32647;49.382;7.078;2022-08-04T18:20:24;6.95;;;1.95;;
46899;SDS011;32647;49.382;7.078;2022-08-04T18:23:12;11.50;;;2.15;;
46899;SDS011;32647;49.382;7.078;2022-08-04T18:25:59;6.40;;;2.30;;
46899;SDS011;32647;49.382;7.078;2022-08-04T18:28:45;5.57;;;2.00;;
46899;SDS011;32647;49.382;7.078;2022-08-04T18:31:31;5.00;;;1.80;;
46899;SDS011;32647;49.382;7.078;2022-08-04T18:34:17;3.15;;;1.90;;
46899;SDS011;32647;49.382;7.078;2022-08-04T18:37:03;2.67;;;2.05;;
46899;SDS011;32647;49.382;7.078;2022-08-04T18:39:49;6.85;;;1.90;;
46899;SDS011;32647;49.382;7.078;2022-08-04T18:42:35;4.57;;;2.00;;
46899;SDS011;32647;49.382;7.078;2022-08-04T18:45:21;8.02;;;2.05;;
46899;SDS011;32647;49.382;7.078;2022-08-04T18:48:08;2.88;;;1.73;;
46899;SDS011;32647;49.382;7.078;2022-08-04T18:50:54;5.30;;;2.00;;
46899;SDS011;32647;49.382;7.078;2022-08-04T18:53:40;3.80;;;2.10;;
46899;SDS011;32647;49.382;7.078;2022-08-04T18:56:27;2.85;;;2.10;;
46899;SDS011;32647;49.382;7.078;2022-08-04T18:59:14;4.15;;;2.10;;
46899;SDS011;32647;49.382;7.078;2022-08-04T19:02:00;3.13;;;1.90;;
46899;SDS011;32647;49.382;7.078;2022-08-04T19:04:46;4.20;;;2.10;;
46899;SDS011;32647;49.382;7.078;2022-08-04T19:07:33;5.25;;;2.17;;
46899;SDS011;32647;49.382;7.078;2022-08-04T19:10:19;4.75;;;1.95;;
46899;SDS011;32647;49.382;7.078;2022-08-04T19:13:05;4.15;;;2.08;;
46899;SDS011;32647;49.382;7.078;2022-08-04T19:15:51;6.80;;;2.47;;
46899;SDS011;32647;49.382;7.078;2022-08-04T19:18:37;3.45;;;2.28;;
46899;SDS011;32647;49.382;7.078;2022-08-04T19:21:23;3.63;;;2.42;;
46899;SDS011;32647;49.382;7.078;2022-08-04T19:24:10;6.15;;;2.25;;
46899;SDS011;32647;49.382;7.078;2022-08-04T19:26:59;7.40;;;2.30;;
46899;SDS011;32647;49.382;7.078;2022-08-04T19:29:46;5.40;;;2.33;;
46899;SDS011;32647;49.382;7.078;2022-08-04T19:32:32;4.80;;;2.15;;
46899;SDS011;32647;49.382;7.078;2022-08-04T19:35:18;3.03;;;2.13;;
46899;SDS011;32647;49.382;7.078;2022-08-04T19:38:04;4.85;;;2.35;;
46899;SDS011;32647;49.382;7.078;2022-08-04T19:40:51;4.43;;;2.10;;
46899;SDS011;32647;49.382;7.078;2022-08-04T19:43:37;3.08;;;1.85;;
46899;SDS011;32647;49.382;7.078;2022-08-04T19:46:24;3.53;;;2.17;;
46899;SDS011;32647;49.382;7.078;2022-08-04T19:49:12;2.55;;;2.22;;
46899;SDS011;32647;49.382;7.078;2022-08-04T19:51:58;3.88;;;2.25;;
46899;SDS011;32647;49.382;7.078;2022-08-04T19:54:44;3.35;;;2.08;;
46899;SDS011;32647;49.382;7.078;2022-08-04T19:57:30;3.45;;;2.38;;
46899;SDS011;32647;49.382;7.078;2022-08-04T20:00:16;7.07;;;2.72;;
46899;SDS011;32647;49.382;7.078;2022-08-04T20:03:07;4.70;;;2.30;;
46899;SDS011;32647;49.382;7.078;2022-08-04T20:05:53;8.60;;;2.58;;
46899;SDS011;32647;49.382;7.078;2022-08-04T20:08:40;2.47;;;2.22;;
46899;SDS011;32647;49.382;7.078;2022-08-04T20:11:26;2.40;;;2.20;;
46899;SDS011;32647;49.382;7.078;2022-08-04T20:14:12;6.93;;;2.85;;
46899;SDS011;32647;49.382;7.078;2022-08-04T20:16:59;7.15;;;4.30;;
46899;SDS011;32647;49.382;7.078;2022-08-04T20:19:48;6.57;;;4.32;;
46899;SDS011;32647;49.382;7.078;2022-08-04T20:22:35;7.05;;;3.45;;
46899;SDS011;32647;49.382;7.078;2022-08-04T20:25:21;5.43;;;3.83;;
46899;SDS011;32647;49.382;7.078;2022-08-04T20:28:07;4.53;;;3.72;;
46899;SDS011;32647;49.382;7.078;2022-08-04T20:30:54;7.10;;;4.28;;
46899;SDS011;32647;49.382;7.078;2022-08-04T20:33:40;5.38;;;3.92;;
46899;SDS011;32647;49.382;7.078;2022-08-04T20:36:26;6.93;;;3.20;;
46899;SDS011;32647;49.382;7.078;2022-08-04T20:39:12;8.68;;;3.10;;
46899;SDS011;32647;49.382;7.078;2022-08-04T20:41:58;5.88;;;2.95;;
46899;SDS011;32647;49.382;7.078;2022-08-04T20:44:44;8.52;;;3.28;;
46899;SDS011;32647;49.382;7.078;2022-08-04T20:47:30;4.10;;;2.88;;
46899;SDS011;32647;49.382;7.078;2022-08-04T20:50:16;4.90;;;2.97;;
46899;SDS011;32647;49.382;7.078;2022-08-04T20:53:04;4.53;;;2.70;;
46899;SDS011;32647;49.382;7.078;2022-08-04T20:55:50;4.55;;;2.83;;
46899;SDS011;32647;49.382;7.078;2022-08-04T20:58:36;2.83;;;2.55;;
46899;SDS011;32647;49.382;7.078;2022-08-04T21:01:22;3.05;;;2.70;;
46899;SDS011;32647;49.382;7.078;2022-08-04T21:04:08;3.42;;;2.70;;
46899;SDS011;32647;49.382;7.078;2022-08-04T21:07:13;3.75;;;2.70;;
46899;SDS011;32647;49.382;7.078;2022-08-04T21:09:59;5.22;;;3.15;;
46899;SDS011;32647;49.382;7.078;2022-08-04T21:12:45;4.53;;;2.60;;
46899;SDS011;32647;49.382;7.078;2022-08-04T21:15:31;4.70;;;2.53;;
46899;SDS011;32647;49.382;7.078;2022-08-04T21:18:17;3.63;;;2.67;;
46899;SDS011;32647;49.382;7.078;2022-08-04T21:21:02;2.85;;;2.55;;
46899;SDS011;32647;49.382;7.078;2022-08-04T21:23:48;5.40;;;2.38;;
46899;SDS011;32647;49.382;7.078;2022-08-04T21:26:34;5.78;;;2.40;;
46899;SDS011;32647;49.382;7.078;2022-08-04T21:29:21;3.58;;;3.28;;
46899;SDS011;32647;49.382;7.078;2022-08-04T21:32:07;4.20;;;3.30;;
46899;SDS011;32647;49.382;7.078;2022-08-04T21:34:53;5.25;;;3.20;;
46899;SDS011;32647;49.382;7.078;2022-08-04T21:37:43;7.75;;;3.08;;
46899;SDS011;32647;49.382;7.078;2022-08-04T21:40:29;11.90;;;3.33;;
46899;SDS011;32647;49.382;7.078;2022-08-04T21:43:16;10.93;;;3.20;;
46899;SDS011;32647;49.382;7.078;2022-08-04T21:46:02;10.82;;;3.17;;
46899;SDS011;32647;49.382;7.078;2022-08-04T21:48:48;7.05;;;3.10;;
46899;SDS011;32647;49.382;7.078;2022-08-04T21:51:35;4.28;;;3.10;;
46899;SDS011;32647;49.382;7.078;2022-08-04T21:54:23;5.35;;;2.97;;
46899;SDS011;32647;49.382;7.078;2022-08-04T21:57:09;3.97;;;2.55;;
46899;SDS011;32647;49.382;7.078;2022-08-04T21:59:55;5.05;;;2.72;;
46899;SDS011;32647;49.382;7.078;2022-08-04T22:02:40;6.03;;;2.70;;
46899;SDS011;32647;49.382;7.078;2022-08-04T22:05:26;6.28;;;2.88;;
46899;SDS011;32647;49.382;7.078;2022-08-04T22:08:13;3.55;;;2.70;;
46899;SDS011;32647;49.382;7.078;2022-08-04T22:10:59;3.08;;;2.30;;
46899;SDS011;32647;49.382;7.078;2022-08-04T22:13:44;4.22;;;2.50;;
46899;SDS011;32647;49.382;7.078;2022-08-04T22:16:30;3.42;;;2.28;;
46899;SDS011;32647;49.382;7.078;2022-08-04T22:19:17;4.28;;;2.45;;
46899;SDS011;32647;49.382;7.078;2022-08-04T22:22:03;4.63;;;2.90;;
46899;SDS011;32647;49.382;7.078;2022-08-04T22:24:49;5.32;;;2.90;;
46899;SDS011;32647;49.382;7.078;2022-08-04T22:27:35;6.55;;;2.90;;
46899;SDS011;32647;49.382;7.078;2022-08-04T22:30:40;4.60;;;3.10;;
46899;SDS011;32647;49.382;7.078;2022-08-04T22:33:26;6.70;;;3.30;;
46899;SDS011;32647;49.382;7.078;2022-08-04T22:36:13;8.13;;;3.20;;
46899;SDS011;32647;49.382;7.078;2022-08-04T22:39:00;8.98;;;3.95;;
46899;SDS011;32647;49.382;7.078;2022-08-04T22:41:46;9.07;;;3.65;;
46899;SDS011;32647;49.382;7.078;2022-08-04T22:44:32;10.77;;;4.07;;
46899;SDS011;32647;49.382;7.078;2022-08-04T22:47:18;11.38;;;3.85;;
46899;SDS011;32647;49.382;7.078;2022-08-04T22:50:04;13.50;;;4.03;;
46899;SDS011;32647;49.382;7.078;2022-08-04T22:52:51;8.38;;;3.50;;
46899;SDS011;32647;49.382;7.078;2022-08-04T22:55:37;10.48;;;3.78;;
46899;SDS011;32647;49.382;7.078;2022-08-04T22:58:22;5.32;;;3.33;;
46899;SDS011;32647;49.382;7.078;2022-08-04T23:01:09;6.15;;;3.47;;